Time;durP1;ratioP1;P1;durP2;ratioP2;P2;SDS_P1;SDS_P2;PMS_P1;PMS_P2;Temp;Humidity;BMP_temperature;BMP_pressure;BME280_temperature;BME280_humidity;BME280_pressure;Samples;Min_cycle;Max_cycle;Signal;HPM_P1;HPM_P2
2022/11/19 00:01:19;;;;;;;17.20;11.90;;;;;;;-1.27;96.77;98468.46;106690;1306;22290;-61
2022/11/19 00:03:46;;;;;;;17.70;11.90;;;;;;;-1.24;96.78;98467.02;106604;1304;139019;-61
2022/11/19 00:06:20;;;;;;;18.80;12.20;;;;;;;-1.21;96.77;98460.20;106701;1306;22208;-61
2022/11/19 00:08:46;;;;;;;18.00;12.30;;;;;;;-1.17;96.80;98455.05;106651;1303;139004;-61
2022/11/19 00:12:53;;;;;;;19.10;12.60;;;;;;;-1.15;97.05;98447.02;106732;1294;22219;-60
2022/11/19 00:14:08;;;;;;;20.10;11.00;;;;;;;-1.12;96.96;98444.55;106707;1287;22199;-61
2022/11/19 00:16:35;;;;;;;18.60;12.40;;;;;;;-1.10;97.01;98440.39;106656;1296;138512;-61
2022/11/19 00:19:02;;;;;;;;;;;;;;;-1.08;97.35;98434.34;106732;1306;23132;-61
2022/11/19 00:21:29;;;;;;;13.70;10.50;;;;;;;-1.05;97.19;98424.42;106567;1306;125862;-61
2022/11/19 00:23:55;;;;;;;17.50;11.20;;;;;;;-1.04;97.09;98419.79;106640;1300;23054;-61
2022/11/19 00:26:22;;;;;;;18.50;11.90;;;;;;;-1.02;97.15;98420.44;106621;1281;22932;-61
2022/11/19 00:28:49;;;;;;;16.70;11.80;;;;;;;-1.00;97.26;98406.60;106631;1295;139597;-60
2022/11/19 00:31:16;;;;;;;18.20;12.00;;;;;;;-0.99;97.30;98399.06;106736;1303;22271;-61
2022/11/19 00:33:43;;;;;;;17.90;11.50;;;;;;;-0.96;97.50;98397.49;106650;1303;139002;-61
2022/11/19 00:36:11;;;;;;;15.20;11.10;;;;;;;-0.93;97.45;98393.13;106735;1298;22112;-61
2022/11/19 00:38:38;;;;;;;15.30;11.10;;;;;;;-0.92;97.44;98382.43;106522;1299;138138;-60
2022/11/19 00:41:05;;;;;;;;;;;;;;;-0.89;97.71;98380.83;106660;1305;23242;-61
2022/11/19 00:43:47;;;;;;;15.60;10.60;;;;;;;-0.88;97.47;98380.33;106712;1303;22134;-61
2022/11/19 00:46:14;;;;;;;16.10;11.20;;;;;;;-0.86;97.38;98379.48;104595;1296;138333;-53
2022/11/19 00:48:41;;;;;;;14.10;10.40;;;;;;;-0.86;97.26;98379.39;102314;1289;25041;-53
2022/11/19 00:51:09;;;;;;;12.70;9.70;;;;;;;-0.84;97.61;98379.54;106351;1310;139615;-55
2022/11/19 00:53:36;;;;;;;15.10;10.30;;;;;;;-0.84;97.45;98375.91;106609;1305;22281;-55
2022/11/19 00:56:05;;;;;;;14.40;9.50;;;;;;;-0.82;97.75;98371.27;106722;1293;22146;-55
2022/11/19 00:58:31;;;;;;;11.70;8.80;;;;;;;-0.80;97.70;98370.61;106562;1298;138109;-55
2022/11/19 01:00:58;;;;;;;;;;;;;;;-0.78;97.73;98363.85;106740;1303;22438;-55
2022/11/19 01:03:25;;;;;;;11.00;8.20;;;;;;;-0.75;98.08;98356.69;106631;1293;124098;-55
2022/11/19 01:05:52;;;;;;;13.00;9.00;;;;;;;-0.73;97.82;98358.19;106721;1303;22198;-55
2022/11/19 01:08:18;;;;;;;;;;;;;;;-0.72;97.75;98354.84;106753;1303;22375;-55
2022/11/19 01:10:45;;;;;;;10.90;7.20;;;;;;;-0.71;97.91;98355.28;106663;1303;126444;-55
2022/11/19 01:15:57;;;;;;;12.00;7.80;;;;;;;-0.67;98.15;98344.36;105065;1289;138405;-54
2022/11/19 01:18:24;;;;;;;9.70;6.50;;;;;;;-0.66;98.06;98342.92;102346;1281;22574;-53
2022/11/19 01:20:51;;;;;;;12.10;6.80;;;;;;;-0.63;98.02;98341.02;106306;1311;137952;-56
2022/11/19 01:23:18;;;;;;;18.00;10.40;;;;;;;-0.62;97.97;98337.11;106755;1303;22902;-55
2022/11/19 01:25:45;;;;;;;;;;;;;;;-0.59;98.27;98336.52;106707;1305;22479;-55
2022/11/19 01:28:11;;;;;;;9.90;6.10;;;;;;;-0.57;98.18;98330.16;106649;1304;125844;-55
2022/11/19 01:30:39;;;;;;;9.10;6.30;;;;;;;-0.56;97.94;98326.30;106762;1295;22146;-55
2022/11/19 01:33:06;;;;;;;8.30;6.20;;;;;;;-0.54;98.03;98323.58;106614;1298;138058;-55
2022/11/19 01:35:33;;;;;;;8.80;5.70;;;;;;;-0.52;98.15;98319.45;106744;1305;23240;-55
2022/11/19 01:38:00;;;;;;;;;;;;;;;-0.51;97.87;98318.59;106683;1306;22498;-55
2022/11/19 01:40:27;;;;;;;8.10;5.60;;;;;;;-0.51;98.11;98318.17;106587;1298;124359;-55
2022/11/19 01:42:54;;;;;;;;;;;;;;;-0.51;97.95;98311.76;106699;1296;22355;-54
2022/11/19 01:45:34;;;;;;;8.70;6.20;;;;;;;-0.50;98.02;98312.90;106625;1303;124132;-55
2022/11/19 01:48:10;;;;;;;6.70;5.10;;;;;;;-0.50;97.81;98308.94;106725;1303;22211;-55
2022/11/19 01:50:39;;;;;;;8.40;5.80;;;;;;;-0.50;97.99;98303.73;106522;1305;139618;-55
2022/11/19 01:53:08;;;;;;;7.40;5.60;;;;;;;-0.48;97.85;98297.66;106555;1288;22226;-55
2022/11/19 01:55:36;;;;;;;6.90;5.40;;;;;;;-0.47;97.79;98292.52;106461;1299;22141;-55
2022/11/19 01:58:02;;;;;;;7.30;5.30;;;;;;;-0.46;97.85;98290.48;106439;1303;138132;-55
2022/11/19 02:00:29;;;;;;;6.50;4.60;;;;;;;-0.45;97.88;98288.80;106587;1297;22147;-55
2022/11/19 02:02:57;;;;;;;6.40;4.70;;;;;;;-0.45;97.77;98295.96;106560;1305;138586;-56
2022/11/19 02:05:24;;;;;;;8.70;5.70;;;;;;;-0.45;97.92;98289.83;106738;1303;22123;-55
2022/11/19 02:07:54;;;;;;;9.40;6.00;;;;;;;-0.44;97.82;98289.95;106582;1299;22142;-55
2022/11/19 02:10:45;;;;;;;6.60;5.30;;;;;;;-0.44;97.79;98282.29;106613;1302;137716;-55
2022/11/19 02:13:15;;;;;;;6.50;5.10;;;;;;;-0.44;97.90;98284.59;106727;1296;22126;-54
2022/11/19 02:15:50;;;;;;;7.50;5.70;;;;;;;-0.44;97.94;98280.06;106497;1297;137745;-55
2022/11/19 02:18:27;;;;;;;7.00;5.10;;;;;;;-0.43;97.96;98283.16;106512;1303;22134;-55
2022/11/19 02:21:05;;;;;;;7.50;5.50;;;;;;;-0.43;97.63;98271.51;106486;1303;138387;-55
2022/11/19 02:23:50;;;;;;;6.70;5.10;;;;;;;-0.42;97.79;98265.27;106593;1306;22106;-55
2022/11/19 02:27:01;;;;;;;8.60;5.80;;;;;;;-0.41;97.71;98262.69;106678;1302;22145;-55
2022/11/19 02:29:30;;;;;;;6.30;4.10;;;;;;;-0.40;97.80;98260.79;105781;1314;22184;-55
2022/11/19 02:32:03;;;;;;;7.20;5.10;;;;;;;-0.39;97.70;98259.55;105890;1311;23040;-55
2022/11/19 02:34:38;;;;;;;5.70;4.30;;;;;;;-0.39;97.68;98258.96;105712;1312;139293;-55
2022/11/19 02:37:29;;;;;;;9.90;5.10;;;;;;;-0.39;97.45;98257.69;105493;1311;22227;-55
2022/11/19 02:40:03;;;;;;;7.60;4.60;;;;;;;-0.38;97.88;98253.44;105742;1306;138590;-55
2022/11/19 02:42:33;;;;;;;5.70;4.20;;;;;;;-0.36;97.69;98257.88;105794;1306;22351;-55
2022/11/19 02:45:11;;;;;;;7.60;4.30;;;;;;;-0.35;97.57;98255.23;105466;1314;139721;-55
2022/11/19 02:47:46;;;;;;;7.00;4.10;;;;;;;-0.38;97.60;98248.17;105641;1311;22393;-55
2022/11/19 02:50:25;;;;;;;5.00;3.70;;;;;;;-0.33;97.75;98254.48;105842;1313;22307;-55
2022/11/19 02:52:52;;;;;;;4.80;3.20;;;;;;;-0.35;97.58;98246.89;105711;1311;138985;-55
2022/11/19 02:55:20;;;;;;;4.30;3.10;;;;;;;-0.32;97.54;98252.29;105717;1314;22199;-55
2022/11/19 02:58:06;;;;;;;4.50;3.10;;;;;;;-0.32;97.64;98256.95;104609;1309;138803;-53
2022/11/19 03:06:24;;;;;;;5.20;3.30;;;;;;;-0.33;97.38;98261.81;101969;1310;25358;-54
2022/11/19 03:08:51;;;;;;;4.10;2.90;;;;;;;-0.35;97.44;98265.98;106631;1298;138678;-55
2022/11/19 03:11:23;;;;;;;5.20;3.40;;;;;;;-0.40;97.43;98255.02;106720;1303;22159;-55
2022/11/19 03:17:20;;;;;;;4.20;3.20;;;;;;;-0.39;97.48;98258.15;103116;1295;138269;-53
2022/11/19 03:19:56;;;;;;;5.00;3.30;;;;;;;-0.41;97.29;98249.21;106365;1297;22901;-55
2022/11/19 03:22:40;;;;;;;4.10;3.20;;;;;;;-0.42;97.52;98244.42;106500;1294;137678;-55
2022/11/19 03:25:28;;;;;;;5.00;3.80;;;;;;;-0.42;97.67;98244.08;106741;1303;22120;-55
2022/11/19 03:27:58;;;;;;;5.60;3.90;;;;;;;-0.43;97.57;98239.94;106339;1305;138112;-55
2022/11/19 03:30:25;;;;;;;4.70;3.20;;;;;;;-0.44;97.45;98240.08;106500;1305;22148;-55
2022/11/19 03:33:01;;;;;;;6.60;4.10;;;;;;;-0.45;97.70;98238.45;106460;1305;139051;-55
2022/11/19 03:35:30;;;;;;;5.60;3.70;;;;;;;-0.46;97.70;98239.11;106463;1308;22124;-55
2022/11/19 03:37:58;;;;;;;5.00;3.50;;;;;;;-0.46;97.75;98240.31;106538;1305;22213;-55
2022/11/19 03:40:25;;;;;;;5.40;3.20;;;;;;;-0.47;97.52;98242.38;106464;1306;137915;-55
2022/11/19 03:42:52;;;;;;;;;;;;;;;-0.48;97.89;98244.92;106503;1299;24545;-55
2022/11/19 03:45:23;;;;;;;5.00;3.70;;;;;;;-0.48;98.02;98243.04;105130;1305;124457;-54
2022/11/19 03:47:50;;;;;;;6.70;4.30;;;;;;;-0.49;97.83;98229.84;102158;1308;25426;-53
2022/11/19 03:50:35;;;;;;;;;;;;;;;-0.49;98.07;98228.15;102323;1290;22586;-53
2022/11/19 03:53:02;;;;;;;8.70;5.00;;;;;;;-0.50;98.13;98224.90;102107;1288;124295;-54
2022/11/19 03:55:33;;;;;;;7.00;5.10;;;;;;;-0.51;98.24;98220.30;106245;1300;22162;-57
2022/11/19 03:58:03;;;;;;;6.20;4.50;;;;;;;-0.56;98.42;98214.09;106328;1306;138307;-55
2022/11/19 04:00:30;;;;;;;5.20;3.90;;;;;;;-0.53;98.59;98223.23;106457;1307;22331;-56
2022/11/19 04:02:57;;;;;;;5.10;3.20;;;;;;;-0.54;98.41;98220.97;106453;1305;139647;-55
2022/11/19 04:05:24;;;;;;;3.90;2.60;;;;;;;-0.55;98.42;98217.77;106549;1300;22277;-56
2022/11/19 04:07:51;;;;;;;3.70;2.60;;;;;;;-0.55;98.51;98208.19;106550;1305;22905;-55
2022/11/19 04:10:17;;;;;;;4.10;3.30;;;;;;;-0.55;98.30;98206.21;106468;1305;138321;-55
2022/11/19 04:12:44;;;;;;;4.30;2.90;;;;;;;-0.54;98.35;98204.52;106550;1305;23234;-55
2022/11/19 04:15:12;;;;;;;4.50;3.20;;;;;;;-0.56;98.46;98199.34;106452;1291;138650;-54
2022/11/19 04:17:38;;;;;;;4.30;3.10;;;;;;;-0.56;98.66;98199.92;106583;1284;22453;-55
2022/11/19 04:20:06;;;;;;;4.00;3.00;;;;;;;-0.57;98.73;98187.26;106536;1294;22321;-56
2022/11/19 04:22:33;;;;;;;4.70;3.00;;;;;;;-0.58;98.62;98182.51;106476;1286;138415;-56
2022/11/19 04:25:00;;;;;;;3.90;3.00;;;;;;;-0.60;98.78;98177.30;106514;1305;22104;-56
2022/11/19 04:27:27;;;;;;;4.70;3.00;;;;;;;-0.61;98.61;98176.77;106500;1297;139149;-55
2022/11/19 04:29:53;;;;;;;5.60;2.60;;;;;;;-0.61;98.92;98170.68;106561;1303;145292;-56
2022/11/19 04:34:32;;;;;;;6.80;4.00;;;;;;;-0.57;98.88;98159.66;99694;1334;545730;-53
2022/11/19 04:36:58;;;;;;;11.60;4.80;;;;;;;-0.59;98.68;98161.17;101613;1320;24287;-54
2022/11/19 04:39:25;;;;;;;11.20;4.80;;;;;;;-0.59;98.86;98156.57;101308;1303;138012;-52
2022/11/19 04:41:52;;;;;;;;;;;;;;;-0.59;98.96;98162.65;101411;1298;22486;-54
2022/11/19 04:44:19;;;;;;;10.10;4.30;;;;;;;-0.60;98.92;98170.06;101425;1303;22523;-53
2022/11/19 04:46:46;;;;;;;8.40;3.60;;;;;;;-0.64;98.84;98174.54;101665;1320;137254;-59
2022/11/19 04:49:12;;;;;;;5.40;3.30;;;;;;;-0.60;99.06;98190.60;101637;1301;135969;-58
2022/11/19 04:51:39;;;;;;;;;;;;;;;-0.61;99.08;98202.08;101653;1303;138441;-58
2022/11/19 04:54:09;;;;;;;10.70;3.10;;;;;;;-0.59;98.95;98215.36;101742;1294;22486;-59
2022/11/19 04:56:36;;;;;;;4.90;3.30;;;;;;;-0.59;98.99;98209.36;101867;1308;24252;-58
2022/11/19 04:59:03;;;;;;;5.90;3.30;;;;;;;-0.59;99.20;98213.27;105585;1319;137262;-59
2022/11/19 05:01:29;;;;;;;5.90;3.40;;;;;;;-0.60;99.04;98213.89;106199;1305;22162;-59
2022/11/19 05:03:56;;;;;;;;;;;;;;;-0.59;98.83;98220.05;106073;1313;138656;-59
2022/11/19 05:06:23;;;;;;;6.10;3.00;;;;;;;-0.59;99.13;98216.80;106196;1312;22214;-59
2022/11/19 05:08:50;;;;;;;6.40;3.10;;;;;;;-0.58;99.11;98217.41;106089;1313;137634;-59
2022/11/19 05:11:16;;;;;;;5.40;3.70;;;;;;;-0.58;98.95;98218.15;106389;1310;22226;-59
2022/11/19 05:13:43;;;;;;;;;;;;;;;-0.58;98.98;98219.46;106170;1312;23273;-59
2022/11/19 05:16:10;;;;;;;7.50;3.40;;;;;;;-0.57;98.89;98216.11;106711;1303;124633;-59
2022/11/19 05:18:37;;;;;;;6.90;4.10;;;;;;;-0.57;98.75;98212.52;106682;1305;22207;-59
2022/11/19 05:21:03;;;;;;;6.50;3.50;;;;;;;-0.56;98.92;98213.17;106626;1305;139014;-59
2022/11/19 05:23:30;;;;;;;7.10;4.10;;;;;;;-0.56;98.92;98212.59;106654;1306;22290;-62
2022/11/19 05:25:57;;;;;;;8.40;4.10;;;;;;;-0.55;98.75;98212.67;106649;1296;22164;-59
2022/11/19 05:28:24;;;;;;;;;;;;;;;-0.56;98.79;98216.84;106539;1302;138106;-60
2022/11/19 05:31:04;;;;;;;4.90;3.20;;;;;;;-0.56;98.88;98219.55;106670;1296;22251;-59
2022/11/19 05:33:31;;;;;;;3.70;2.50;;;;;;;-0.56;98.84;98216.34;106628;1304;139782;-59
2022/11/19 05:36:00;;;;;;;5.90;2.50;;;;;;;-0.56;98.91;98217.83;106670;1292;22214;-60
2022/11/19 05:38:27;;;;;;;4.30;3.20;;;;;;;-0.57;98.82;98221.78;106756;1302;22127;-59
2022/11/19 05:40:54;;;;;;;3.50;2.80;;;;;;;-0.55;98.72;98226.95;106573;1304;139239;-60
2022/11/19 05:43:20;;;;;;;;;;;;;;;-0.56;98.78;98230.41;106767;1293;22353;-59
2022/11/19 05:45:47;;;;;;;3.00;2.40;;;;;;;-0.57;98.76;98234.98;105453;1301;125671;-59
2022/11/19 05:48:14;;;;;;;3.90;2.60;;;;;;;-0.56;98.46;98240.67;102310;1306;25137;-58
2022/11/19 05:50:41;;;;;;;3.60;2.90;;;;;;;-0.57;98.76;98239.58;102373;1298;138023;-58
2022/11/19 05:53:08;;;;;;;3.10;2.30;;;;;;;-0.58;98.68;98245.73;106394;1310;22166;-60
2022/11/19 05:55:35;;;;;;;3.40;2.90;;;;;;;-0.58;98.71;98242.18;106698;1297;22212;-60
2022/11/19 05:58:02;;;;;;;3.30;2.60;;;;;;;-0.57;98.57;98241.09;106553;1306;138000;-61
2022/11/19 06:00:29;;;;;;;2.40;1.90;;;;;;;-0.56;98.62;98243.21;106687;1303;22337;-61
2022/11/19 06:02:55;;;;;;;3.40;2.20;;;;;;;-0.55;98.37;98243.49;106543;1305;138798;-60
2022/11/19 06:05:22;;;;;;;;;;;;;;;-0.56;98.57;98243.01;106710;1302;22352;-60
2022/11/19 06:07:49;;;;;;;2.60;2.20;;;;;;;-0.53;98.63;98246.13;106692;1292;22222;-61
2022/11/19 06:10:16;;;;;;;3.00;2.40;;;;;;;-0.53;98.35;98246.90;106561;1303;138389;-59
2022/11/19 06:12:45;;;;;;;;;;;;;;;-0.53;98.53;98249.77;106719;1303;22376;-60
2022/11/19 06:15:12;;;;;;;2.80;2.30;;;;;;;-0.53;98.42;98251.42;106564;1303;125367;-59
2022/11/19 06:17:39;;;;;;;2.80;2.30;;;;;;;-0.52;98.30;98263.12;106652;1288;22279;-60
2022/11/19 06:20:09;;;;;;;2.60;2.20;;;;;;;-0.52;98.42;98266.36;106635;1303;22230;-59
2022/11/19 06:22:36;;;;;;;3.70;2.50;;;;;;;-0.50;98.35;98270.26;106524;1305;138002;-59
2022/11/19 06:25:04;;;;;;;2.80;2.10;;;;;;;-0.49;98.33;98276.39;106658;1305;22141;-60
2022/11/19 06:27:30;;;;;;;3.90;2.50;;;;;;;-0.52;98.37;98281.39;106581;1304;137523;-61
2022/11/19 06:29:57;;;;;;;4.90;2.30;;;;;;;-0.48;98.27;98288.64;106664;1297;22222;-60
2022/11/19 06:32:24;;;;;;;2.40;2.00;;;;;;;-0.46;98.50;98287.52;106749;1304;22183;-60
2022/11/19 06:34:51;;;;;;;6.30;3.80;;;;;;;-0.45;98.28;98288.95;106499;1303;137917;-61
2022/11/19 06:37:17;;;;;;;3.40;2.60;;;;;;;-0.44;98.34;98292.73;106627;1289;22936;-61
2022/11/19 06:39:44;;;;;;;4.80;2.80;;;;;;;-0.42;98.15;98297.84;106566;1299;137710;-62
2022/11/19 06:44:56;;;;;;;10.10;5.10;;;;;;;-0.41;98.30;98302.61;106528;1295;137521;-60
2022/11/19 06:47:23;;;;;;;5.50;3.50;;;;;;;-0.39;98.32;98303.88;106633;1297;22913;-60
2022/11/19 06:49:50;;;;;;;3.80;3.00;;;;;;;-0.35;98.19;98307.23;106751;1297;23023;-61
2022/11/19 06:52:16;;;;;;;4.10;3.00;;;;;;;-0.33;98.29;98305.54;106534;1305;137545;-60
2022/11/19 06:54:43;;;;;;;7.70;4.50;;;;;;;-0.32;98.24;98303.80;106635;1305;22330;-60
2022/11/19 06:57:10;;;;;;;12.00;6.00;;;;;;;-0.31;98.08;98304.55;102994;1296;137591;-60
2022/11/19 06:59:37;;;;;;;;;;;;;;;-0.30;97.89;98305.27;106436;1312;23626;-59
2022/11/19 07:02:05;;;;;;;8.20;3.40;;;;;;;-0.31;97.88;98307.21;106695;1305;22311;-60
2022/11/19 07:04:32;;;;;;;8.80;4.20;;;;;;;-0.32;97.99;98306.89;106556;1303;138494;-60
2022/11/19 07:06:59;;;;;;;;;;;;;;;-0.29;97.98;98308.30;106707;1303;22346;-58
2022/11/19 07:09:26;;;;;;;11.80;4.80;;;;;;;-0.28;98.14;98313.05;106549;1297;123938;-62
2022/11/19 07:11:52;;;;;;;5.50;3.70;;;;;;;-0.27;98.01;98316.75;106707;1303;23049;-60
2022/11/19 07:14:19;;;;;;;11.60;5.20;;;;;;;-0.28;97.87;98316.88;106738;1303;22251;-59
2022/11/19 07:16:46;;;;;;;;;;;;;;;-0.29;97.84;98321.80;106446;1305;137379;-60
2022/11/19 07:19:13;;;;;;;12.50;7.50;;;;;;;-0.29;97.87;98324.69;106614;1297;22660;-60
2022/11/19 07:21:39;;;;;;;58.40;20.50;;;;;;;-0.30;97.60;98327.83;106468;1302;139013;-60
2022/11/19 07:24:07;;;;;;;13.50;6.90;;;;;;;-0.29;97.77;98331.64;106675;1303;22223;-61
2022/11/19 07:26:34;;;;;;;23.90;8.70;;;;;;;-0.28;97.56;98332.52;104116;1296;25326;-60
2022/11/19 07:29:03;;;;;;;40.00;15.60;;;;;;;-0.27;97.49;98333.30;106089;1306;137805;-60
2022/11/19 07:31:31;;;;;;;52.60;23.10;;;;;;;-0.24;97.55;98341.44;106573;1305;23067;-60
2022/11/19 07:33:57;;;;;;;40.70;17.70;;;;;;;-0.22;97.60;98343.33;106490;1305;138949;-60
2022/11/19 07:36:24;;;;;;;;;;;;;;;-0.21;97.54;98343.52;106614;1305;22419;-61
2022/11/19 07:38:51;;;;;;;32.90;15.60;;;;;;;-0.19;97.82;98346.89;106531;1305;124489;-60
2022/11/19 07:44:04;;;;;;;17.20;9.20;;;;;;;-0.20;97.59;98348.95;106599;1297;22209;-60
2022/11/19 07:46:31;;;;;;;16.50;9.60;;;;;;;-0.20;97.52;98349.93;106617;1297;138597;-61
2022/11/19 07:48:57;;;;;;;9.80;6.10;;;;;;;-0.18;97.39;98354.54;106678;1295;22137;-60
2022/11/19 07:51:24;;;;;;;17.70;9.60;;;;;;;-0.16;97.70;98357.94;106494;1294;137892;-60
2022/11/19 07:53:51;;;;;;;;;;;;;;;-0.14;97.63;98361.13;106681;1303;22424;-60
2022/11/19 07:56:18;;;;;;;9.70;5.50;;;;;;;-0.14;97.48;98363.21;104599;1288;22495;-59
2022/11/19 07:58:45;;;;;;;;;;;;;;;-0.13;97.43;98364.11;102300;1292;139283;-59
2022/11/19 08:01:13;;;;;;;13.60;8.50;;;;;;;-0.13;97.64;98366.79;102515;1312;22939;-60
2022/11/19 08:03:45;;;;;;;11.10;6.30;;;;;;;-0.15;97.24;98363.99;106549;1288;137671;-61
2022/11/19 08:06:12;;;;;;;10.90;6.40;;;;;;;-0.17;97.12;98366.88;106657;1305;22960;-61
2022/11/19 08:08:39;;;;;;;8.30;5.80;;;;;;;-0.20;97.08;98365.30;106647;1297;22099;-60
2022/11/19 08:11:07;;;;;;;15.30;7.80;;;;;;;-0.19;97.25;98372.66;106580;1305;22245;-60
2022/11/19 08:13:34;;;;;;;10.50;7.30;;;;;;;-0.18;97.12;98382.42;106580;1298;22112;-61
2022/11/19 08:16:02;;;;;;;11.80;6.90;;;;;;;-0.17;97.02;98387.55;106520;1303;138127;-61
2022/11/19 08:18:29;;;;;;;13.30;8.50;;;;;;;-0.15;97.08;98392.77;106635;1294;22222;-61
2022/11/19 08:21:07;;;;;;;66.40;40.20;;;;;;;-0.15;96.70;98399.89;106665;1302;137921;-60
2022/11/19 08:23:34;;;;;;;31.00;17.10;;;;;;;-0.14;96.76;98407.54;106673;1294;21959;-59
2022/11/19 08:26:01;;;;;;;89.10;40.20;;;;;;;-0.15;96.49;98415.34;106774;1288;22149;-59
2022/11/19 08:28:27;;;;;;;;;;;;;;;-0.17;96.30;98420.42;106498;1302;138833;-59
2022/11/19 08:30:54;;;;;;;98.50;38.10;;;;;;;-0.21;95.79;98424.02;106674;1303;22235;-59
2022/11/19 08:33:21;;;;;;;78.50;32.80;;;;;;;-0.26;95.98;98428.32;106576;1297;139116;-59
2022/11/19 08:35:48;;;;;;;29.80;14.50;;;;;;;-0.29;95.61;98431.52;106638;1297;22270;-59
2022/11/19 08:38:14;;;;;;;15.80;8.90;;;;;;;-0.29;95.70;98433.77;106573;1290;22199;-59
2022/11/19 08:40:41;;;;;;;14.40;8.40;;;;;;;-0.32;95.52;98440.52;106519;1305;138809;-59
2022/11/19 08:43:08;;;;;;;9.20;5.40;;;;;;;-0.37;95.52;98449.43;106594;1297;22275;-60
2022/11/19 08:45:36;;;;;;;10.30;6.70;;;;;;;-0.41;95.36;98461.80;106636;1293;138904;-59
2022/11/19 08:48:04;;;;;;;12.10;8.10;;;;;;;-0.49;94.97;98456.63;106748;1293;22934;-59
2022/11/19 08:50:31;;;;;;;11.60;7.40;;;;;;;-0.49;95.32;98467.04;106630;1303;22142;-59
2022/11/19 08:53:00;;;;;;;10.10;7.10;;;;;;;-0.49;95.07;98469.71;106650;1304;138635;-59
2022/11/19 08:55:28;;;;;;;11.60;7.80;;;;;;;-0.50;95.29;98473.34;106647;1297;22179;-59
2022/11/19 08:58:13;;;;;;;10.80;7.80;;;;;;;-0.53;95.15;98476.14;106467;1305;138089;-59
2022/11/19 09:00:40;;;;;;;21.80;12.60;;;;;;;-0.53;95.41;98479.63;106732;1289;22143;-60
2022/11/19 09:03:07;;;;;;;;;;;;;;;-0.52;95.12;98486.30;106654;1297;138404;-60
2022/11/19 09:05:34;;;;;;;13.70;8.70;;;;;;;-0.51;95.38;98489.02;106669;1289;22340;-61
2022/11/19 09:08:00;;;;;;;12.30;8.60;;;;;;;-0.49;95.57;98491.73;106622;1305;22225;-61
2022/11/19 09:10:27;;;;;;;19.50;11.90;;;;;;;-0.47;95.63;98491.11;106551;1305;139171;-61
2022/11/19 09:12:54;;;;;;;;;;;;;;;-0.43;95.60;98496.48;106626;1305;22324;-61
2022/11/19 09:15:21;;;;;;;10.90;7.60;;;;;;;-0.38;95.75;98499.16;106637;1303;125445;-61
2022/11/19 09:17:48;;;;;;;10.60;6.40;;;;;;;-0.36;95.90;98504.19;106644;1305;22523;-61
2022/11/19 09:20:15;;;;;;;12.60;7.10;;;;;;;-0.35;95.52;98511.64;106685;1303;22307;-61
2022/11/19 09:22:42;;;;;;;17.90;9.00;;;;;;;-0.33;95.62;98514.27;106633;1295;138108;-60
2022/11/19 09:25:09;;;;;;;13.00;8.40;;;;;;;-0.31;95.64;98513.64;106672;1303;22216;-61
2022/11/19 09:27:36;;;;;;;13.90;9.00;;;;;;;-0.30;95.43;98517.71;106578;1304;138630;-61
2022/11/19 09:30:04;;;;;;;15.10;8.90;;;;;;;-0.28;95.57;98518.89;106750;1303;22208;-60
2022/11/19 09:32:31;;;;;;;12.60;8.30;;;;;;;-0.24;95.46;98523.69;106650;1305;22528;-60
2022/11/19 09:34:58;;;;;;;;;;;;;;;-0.27;95.11;98530.23;106586;1288;139298;-60
2022/11/19 09:37:25;;;;;;;11.60;8.30;;;;;;;-0.31;94.72;98534.14;106653;1302;23415;-60
2022/11/19 09:39:52;;;;;;;;;;;;;;;-0.39;94.78;98535.03;105507;1304;139680;-60
2022/11/19 09:42:40;;;;;;;12.10;7.90;;;;;;;-0.40;94.89;98541.90;103751;1289;22214;-61
2022/11/19 09:45:41;;;;;;;13.30;9.50;;;;;;;-0.44;94.88;98539.61;103908;1274;140650;-60
2022/11/19 09:48:21;;;;;;;11.40;8.30;;;;;;;-0.46;94.79;98541.48;103585;1290;22889;-60
2022/11/19 09:50:53;;;;;;;11.80;7.70;;;;;;;-0.39;95.01;98556.48;103835;1302;139110;-60
2022/11/19 09:53:21;;;;;;;11.30;7.40;;;;;;;-0.42;94.77;98551.39;103972;1297;24734;-61
2022/11/19 09:55:50;;;;;;;13.60;8.50;;;;;;;-0.39;94.70;98554.42;104082;1288;23892;-60
2022/11/19 09:58:26;;;;;;;11.60;8.20;;;;;;;-0.38;95.05;98554.34;103748;1295;139887;-60
2022/11/19 10:00:53;;;;;;;10.30;7.90;;;;;;;-0.35;94.85;98549.69;104813;1288;23101;-61
2022/11/19 10:03:21;;;;;;;12.10;7.20;;;;;;;-0.28;95.09;98547.48;106617;1306;138810;-61
2022/11/19 10:06:00;;;;;;;10.30;7.20;;;;;;;-0.28;94.72;98552.28;106559;1287;22817;-61
2022/11/19 10:08:32;;;;;;;11.00;7.90;;;;;;;-0.33;94.74;98557.74;106626;1288;22136;-61
2022/11/19 10:11:25;;;;;;;9.80;6.60;;;;;;;-0.37;94.78;98558.25;106603;1293;137753;-60
2022/11/19 10:14:18;;;;;;;6.80;5.90;;;;;;;-0.32;94.88;98566.89;106711;1296;22124;-60
2022/11/19 10:17:06;;;;;;;9.30;6.20;;;;;;;-0.32;94.68;98561.33;106238;1309;138528;-60
2022/11/19 10:19:53;;;;;;;12.60;7.90;;;;;;;-0.32;94.70;98561.66;106375;1309;23274;-60
2022/11/19 10:22:21;;;;;;;;;;;;;;;-0.34;94.82;98564.49;106282;1309;139877;-60
2022/11/19 10:24:54;;;;;;;11.20;7.40;;;;;;;-0.34;94.64;98570.55;106406;1309;22252;-60
2022/11/19 10:27:29;;;;;;;10.70;8.00;;;;;;;-0.35;94.67;98582.12;106082;1312;138393;-60
2022/11/19 10:29:58;;;;;;;9.80;7.50;;;;;;;-0.36;94.94;98586.81;106355;1294;22145;-60
2022/11/19 10:32:46;;;;;;;12.10;8.50;;;;;;;-0.32;94.83;98583.68;106279;1304;22167;-60
2022/11/19 10:35:17;;;;;;;14.20;10.30;;;;;;;-0.29;94.82;98599.44;106056;1294;22289;-60
2022/11/19 10:37:56;;;;;;;13.70;9.00;;;;;;;-0.28;94.97;98602.35;106351;1288;22191;-60
2022/11/19 10:40:23;;;;;;;9.30;6.90;;;;;;;-0.28;94.41;98605.34;106277;1285;139437;-60
2022/11/19 10:43:22;;;;;;;9.40;7.00;;;;;;;-0.28;94.12;98611.40;106140;1303;22173;-60
2022/11/19 10:45:49;;;;;;;11.50;8.00;;;;;;;-0.27;93.89;98613.49;105687;1299;139967;-60
2022/11/19 10:48:22;;;;;;;9.30;7.10;;;;;;;-0.29;93.66;98619.23;105767;1315;22172;-60
2022/11/19 10:50:50;;;;;;;10.40;7.30;;;;;;;-0.29;93.62;98626.04;102545;1305;138110;-59
2022/11/19 10:53:32;;;;;;;10.90;8.10;;;;;;;-0.30;93.64;98636.51;101519;1314;22723;-61
2022/11/19 10:56:13;;;;;;;11.80;7.50;;;;;;;-0.29;93.63;98650.00;101825;1295;22498;-60
2022/11/19 10:58:53;;;;;;;9.70;7.20;;;;;;;-0.30;93.48;98659.80;101716;1300;139771;-60
2022/11/19 11:01:26;;;;;;;13.30;8.20;;;;;;;-0.33;93.57;98663.59;101882;1295;24474;-60
2022/11/19 11:04:21;;;;;;;10.50;7.50;;;;;;;-0.32;93.45;98669.61;106216;1304;139121;-61
2022/11/19 11:06:58;;;;;;;12.50;8.20;;;;;;;-0.30;93.68;98683.85;106332;1295;22302;-60
2022/11/19 11:09:38;;;;;;;11.70;7.50;;;;;;;-0.33;93.62;98687.48;106184;1309;138274;-61
2022/11/19 11:15:23;;;;;;;8.20;6.40;;;;;;;-0.24;93.75;98716.73;106026;1303;139421;-60
2022/11/19 11:18:06;;;;;;;10.90;7.10;;;;;;;-0.26;93.04;98721.58;106160;1309;22342;-60
2022/11/19 11:20:35;;;;;;;11.50;7.40;;;;;;;-0.30;92.96;98723.23;106363;1309;22257;-60
2022/11/19 11:23:03;;;;;;;10.30;6.90;;;;;;;-0.30;92.69;98715.39;106233;1295;139036;-60
2022/11/19 11:25:30;;;;;;;12.80;7.80;;;;;;;-0.32;92.70;98708.02;106640;1303;22153;-60
2022/11/19 11:28:04;;;;;;;11.50;8.00;;;;;;;-0.32;92.73;98708.60;106593;1298;139113;-60
2022/11/19 11:30:31;;;;;;;11.50;7.70;;;;;;;-0.31;92.64;98714.53;106698;1306;22183;-60
2022/11/19 11:33:11;;;;;;;;;;;;;;;-0.30;92.67;98717.73;106656;1303;138545;-60
2022/11/19 11:35:38;;;;;;;12.40;7.80;;;;;;;-0.29;92.55;98724.90;106649;1302;22205;-60
2022/11/19 11:38:04;;;;;;;12.60;7.80;;;;;;;-0.30;92.47;98732.02;106510;1284;22142;-60
2022/11/19 11:40:31;;;;;;;13.10;9.00;;;;;;;-0.33;92.00;98741.86;106659;1289;138084;-60
2022/11/19 11:42:58;;;;;;;12.50;8.00;;;;;;;-0.36;92.17;98755.25;106652;1296;22149;-61
2022/11/19 11:45:31;;;;;;;10.70;8.20;;;;;;;-0.35;92.15;98773.15;106559;1302;140268;-60
2022/11/19 11:48:04;;;;;;;15.80;10.50;;;;;;;-0.36;92.18;98781.67;106639;1302;22139;-60
2022/11/19 11:50:31;;;;;;;13.40;8.70;;;;;;;-0.36;91.94;98789.33;106620;1302;22275;-60
2022/11/19 11:52:57;;;;;;;;;;;;;;;-0.38;91.75;98792.62;106614;1302;140108;-60
2022/11/19 11:55:24;;;;;;;12.10;8.40;;;;;;;-0.44;91.69;98803.94;106650;1302;22906;-61
2022/11/19 11:58:05;;;;;;;13.70;8.60;;;;;;;-0.46;91.54;98814.73;106539;1302;138632;-60
2022/11/19 12:00:41;;;;;;;12.90;8.80;;;;;;;-0.46;91.62;98823.05;106635;1302;23040;-60